createdAt,value
2023-04-16T00:01:48.212Z,5.20
2023-04-16T00:04:16.780Z,5.14
2023-04-16T00:06:44.968Z,5.05
2023-04-16T00:09:13.083Z,5.00
2023-04-16T00:11:41.207Z,4.95
2023-04-16T00:14:10.998Z,4.91
2023-04-16T00:16:40.090Z,4.86
2023-04-16T00:19:08.447Z,4.84
2023-04-16T00:21:36.920Z,4.75
2023-04-16T00:24:05.198Z,4.74
2023-04-16T00:26:33.659Z,4.70
2023-04-16T00:29:02.435Z,4.64
2023-04-16T00:31:33.518Z,4.60
2023-04-16T00:34:02.042Z,4.59
2023-04-16T00:36:30.521Z,4.57
2023-04-16T00:38:59.454Z,4.53
2023-04-16T00:41:27.844Z,4.51
2023-04-16T00:43:56.103Z,4.46
2023-04-16T00:46:25.489Z,4.40
2023-04-16T00:48:56.324Z,4.36
2023-04-16T00:51:24.911Z,4.32
2023-04-16T00:53:53.814Z,4.30
2023-04-16T00:56:24.247Z,4.26
2023-04-16T00:58:55.663Z,4.24
2023-04-16T01:01:24.008Z,4.17
2023-04-16T01:03:52.726Z,4.14
2023-04-16T01:06:22.818Z,4.10
2023-04-16T01:08:51.106Z,4.07
2023-04-16T01:11:19.795Z,4.07
2023-04-16T01:13:47.968Z,4.02
2023-04-16T01:16:16.133Z,3.99
2023-04-16T01:18:46.127Z,3.98
2023-04-16T01:21:23.818Z,3.93
2023-04-16T01:23:52.002Z,3.88
2023-04-16T01:26:25.864Z,3.85
2023-04-16T01:28:54.329Z,3.80
2023-04-16T01:31:22.496Z,3.77
2023-04-16T01:33:52.255Z,3.73
2023-04-16T01:36:25.053Z,3.70
2023-04-16T01:38:53.203Z,3.69
2023-04-16T01:41:23.149Z,3.65
2023-04-16T01:43:51.321Z,3.62
2023-04-16T01:46:24.998Z,3.59
2023-04-16T01:48:54.972Z,3.56
2023-04-16T01:51:24.855Z,3.52
2023-04-16T01:53:53.053Z,3.49
2023-04-16T01:56:21.309Z,3.47
2023-04-16T01:58:49.508Z,3.47
2023-04-16T02:01:17.950Z,3.44
2023-04-16T02:03:46.491Z,3.42
2023-04-16T02:06:16.194Z,3.42
2023-04-16T02:08:45.841Z,3.40
2023-04-16T02:11:14.525Z,3.40
2023-04-16T02:13:42.685Z,3.38
2023-04-16T02:16:10.990Z,3.37
2023-04-16T02:18:39.202Z,3.33
2023-04-16T02:21:07.982Z,3.29
2023-04-16T02:23:36.193Z,3.27
2023-04-16T02:26:13.725Z,3.22
2023-04-16T02:28:42.022Z,3.16
2023-04-16T02:31:10.179Z,3.08
2023-04-16T02:33:38.342Z,3.03
2023-04-16T02:36:13.992Z,2.98
2023-04-16T02:38:42.451Z,2.95
2023-04-16T02:41:13.671Z,2.88
2023-04-16T02:43:42.132Z,2.79
2023-04-16T02:46:10.236Z,2.73
2023-04-16T02:48:38.289Z,2.68
2023-04-16T02:51:07.005Z,2.62
2023-04-16T02:53:35.248Z,2.59
2023-04-16T02:56:03.474Z,2.56
2023-04-16T02:58:33.042Z,2.53
2023-04-16T03:01:01.432Z,2.49
2023-04-16T03:03:29.544Z,2.47
2023-04-16T03:05:57.707Z,2.43
2023-04-16T03:08:26.481Z,2.38
2023-04-16T03:10:54.636Z,2.32
2023-04-16T03:13:23.974Z,2.27
2023-04-16T03:15:53.522Z,2.21
2023-04-16T03:18:21.694Z,2.17
2023-04-16T03:20:53.196Z,2.12
2023-04-16T03:23:21.433Z,2.04
2023-04-16T03:25:49.675Z,2.04
2023-04-16T03:28:18.027Z,2.01
2023-04-16T03:30:56.591Z,1.98
2023-04-16T03:33:24.987Z,1.97
2023-04-16T03:35:59.942Z,1.94
2023-04-16T03:38:28.156Z,1.88
2023-04-16T03:40:57.770Z,1.86
2023-04-16T03:43:25.995Z,1.86
2023-04-16T03:45:55.783Z,1.82
2023-04-16T03:48:24.433Z,1.77
2023-04-16T03:50:52.584Z,1.74
2023-04-16T03:53:21.390Z,1.70
2023-04-16T03:55:52.294Z,1.70
2023-04-16T03:58:21.336Z,1.68
2023-04-16T04:00:49.631Z,1.65
2023-04-16T04:03:20.225Z,1.69
2023-04-16T04:05:48.595Z,1.68
2023-04-16T04:08:16.704Z,1.68
2023-04-16T04:10:45.986Z,1.70
2023-04-16T04:13:14.394Z,1.71
2023-04-16T04:15:42.535Z,1.71
2023-04-16T04:18:10.901Z,1.74
2023-04-16T04:20:42.493Z,1.79
2023-04-16T04:23:11.139Z,1.82
2023-04-16T04:25:39.926Z,1.87
2023-04-16T04:28:08.168Z,1.94
2023-04-16T04:30:36.894Z,1.98
2023-04-16T04:33:06.646Z,1.99
2023-04-16T04:35:35.240Z,2.04
2023-04-16T04:38:16.726Z,2.10
2023-04-16T04:40:46.596Z,2.23
2023-04-16T04:43:14.929Z,2.31
2023-04-16T04:45:43.227Z,2.45
2023-04-16T04:48:12.045Z,2.56
2023-04-16T04:50:41.041Z,2.67
2023-04-16T04:53:11.676Z,2.78
2023-04-16T04:55:40.552Z,2.89
2023-04-16T04:58:15.556Z,3.01
2023-04-16T05:00:44.615Z,3.08
2023-04-16T05:03:20.596Z,3.16
2023-04-16T05:05:49.093Z,3.22
2023-04-16T05:08:18.734Z,3.34
2023-04-16T05:10:47.935Z,3.43
2023-04-16T05:13:16.215Z,3.46
2023-04-16T05:15:45.115Z,3.49
2023-04-16T05:18:13.398Z,3.51
2023-04-16T05:20:41.587Z,3.59
2023-04-16T05:23:10.243Z,3.69
2023-04-16T05:25:40.601Z,3.77
2023-04-16T05:28:11.157Z,3.85
2023-04-16T05:30:39.395Z,3.92
2023-04-16T05:33:07.582Z,3.97
2023-04-16T05:35:36.202Z,4.04
2023-04-16T05:38:05.373Z,4.16
2023-04-16T05:40:36.592Z,4.26
2023-04-16T05:43:06.957Z,4.31
2023-04-16T05:45:39.772Z,4.40
2023-04-16T05:48:09.233Z,4.50
2023-04-16T05:50:38.136Z,4.60
2023-04-16T05:53:08.166Z,4.68
2023-04-16T05:55:37.084Z,4.74
2023-04-16T05:58:07.295Z,4.79
2023-04-16T06:00:35.528Z,4.82
2023-04-16T06:03:04.642Z,4.86
2023-04-16T06:05:33.018Z,4.96
2023-04-16T06:08:01.253Z,5.07
2023-04-16T06:10:29.507Z,5.14
2023-04-16T06:12:58.077Z,5.15
2023-04-16T06:15:27.759Z,5.15
2023-04-16T06:17:56.296Z,5.19
2023-04-16T06:20:24.531Z,5.19
2023-04-16T06:22:52.711Z,5.12
2023-04-16T06:25:20.834Z,5.20
2023-04-16T06:27:49.031Z,5.27
2023-04-16T06:30:23.428Z,5.40
2023-04-16T06:32:53.254Z,5.47
2023-04-16T06:35:22.070Z,5.56
2023-04-16T06:37:50.406Z,5.70
2023-04-16T06:40:19.480Z,5.81
2023-04-16T06:42:48.703Z,5.88
2023-04-16T06:45:17.066Z,5.84
2023-04-16T06:47:46.428Z,5.89
2023-04-16T06:50:16.196Z,5.92
2023-04-16T06:52:44.447Z,6.01
2023-04-16T06:55:12.735Z,6.06
2023-04-16T06:57:43.630Z,6.10
2023-04-16T07:00:13.562Z,6.18
2023-04-16T07:02:49.625Z,6.30
2023-04-16T07:05:19.454Z,6.44
2023-04-16T07:07:47.625Z,6.45
2023-04-16T07:10:16.001Z,6.49
2023-04-16T07:12:44.473Z,6.57
2023-04-16T07:15:12.988Z,6.57
2023-04-16T07:17:41.143Z,6.59
2023-04-16T07:20:10.568Z,6.65
2023-04-16T07:22:40.122Z,6.68
2023-04-16T07:25:09.231Z,6.75
2023-04-16T07:27:37.335Z,6.86
2023-04-16T07:30:06.738Z,7.04
2023-04-16T07:32:43.940Z,7.13
2023-04-16T07:35:12.078Z,7.21
2023-04-16T07:37:44.700Z,7.36
2023-04-16T07:40:13.733Z,7.50
2023-04-16T07:42:44.264Z,7.55
2023-04-16T07:45:13.163Z,7.58
2023-04-16T07:47:41.386Z,7.68
2023-04-16T07:50:10.538Z,7.75
2023-04-16T07:52:41.571Z,7.79
2023-04-16T07:55:11.557Z,7.83
2023-04-16T07:57:42.734Z,7.88
2023-04-16T08:00:11.608Z,7.92
2023-04-16T08:02:40.046Z,8.06
2023-04-16T08:05:12.751Z,8.21
2023-04-16T08:07:41.479Z,8.25
2023-04-16T08:10:14.422Z,8.33
2023-04-16T08:12:42.653Z,8.42
2023-04-16T08:15:11.617Z,8.54
2023-04-16T08:17:53.494Z,8.64
2023-04-16T08:20:21.831Z,8.79
2023-04-16T08:22:50.351Z,8.83
2023-04-16T08:25:20.641Z,8.89
2023-04-16T08:27:48.841Z,9.00
2023-04-16T08:30:17.199Z,9.09
2023-04-16T08:32:47.946Z,9.23
2023-04-16T08:35:17.809Z,9.36
2023-04-16T08:37:46.161Z,9.36
2023-04-16T08:40:14.576Z,9.37
2023-04-16T08:42:50.764Z,9.47
2023-04-16T08:45:19.817Z,9.50
2023-04-16T08:47:49.956Z,9.56
2023-04-16T08:50:23.684Z,9.56
2023-04-16T08:52:53.522Z,9.68
2023-04-16T08:55:27.198Z,9.83
2023-04-16T08:58:02.656Z,10.01
2023-04-16T09:00:32.974Z,10.06
2023-04-16T09:03:01.917Z,10.10
2023-04-16T09:05:31.004Z,10.09
2023-04-16T09:07:59.518Z,10.11
2023-04-16T09:10:29.048Z,10.18
2023-04-16T09:12:58.761Z,10.25
2023-04-16T09:15:27.474Z,10.34
2023-04-16T09:17:57.015Z,10.48
2023-04-16T09:20:25.659Z,10.48
2023-04-16T09:22:53.935Z,10.52
2023-04-16T09:25:22.860Z,10.47
2023-04-16T09:27:52.170Z,10.53
2023-04-16T09:30:23.980Z,10.64
2023-04-16T09:32:53.552Z,10.81
2023-04-16T09:35:22.629Z,10.85
2023-04-16T09:37:58.138Z,10.89
2023-04-16T09:40:30.562Z,10.95
2023-04-16T09:43:00.945Z,10.96
2023-04-16T09:45:34.200Z,10.97
2023-04-16T09:48:06.392Z,11.03
2023-04-16T09:50:34.524Z,11.04
2023-04-16T09:53:04.721Z,11.15
2023-04-16T09:55:34.150Z,11.18
2023-04-16T09:58:03.142Z,11.21
2023-04-16T10:00:32.266Z,11.32
2023-04-16T10:03:08.267Z,11.43
2023-04-16T10:05:36.788Z,11.51
2023-04-16T10:08:12.339Z,11.55
2023-04-16T10:10:41.233Z,11.50
2023-04-16T10:13:10.284Z,11.55
2023-04-16T10:15:38.909Z,11.64
2023-04-16T10:18:08.948Z,11.61
2023-04-16T10:20:38.172Z,11.69
2023-04-16T10:23:16.597Z,11.77
2023-04-16T10:25:49.132Z,11.80
2023-04-16T10:28:18.420Z,11.82
2023-04-16T10:30:53.046Z,11.89
2023-04-16T10:33:24.304Z,12.02
2023-04-16T10:36:04.952Z,12.14
2023-04-16T10:38:36.268Z,12.17
2023-04-16T10:41:07.997Z,12.27
2023-04-16T10:43:41.206Z,12.34
2023-04-16T10:46:23.701Z,12.31
2023-04-16T10:48:55.149Z,12.28
2023-04-16T10:51:29.390Z,12.30
2023-04-16T10:53:58.307Z,12.40
2023-04-16T10:56:27.579Z,12.54
2023-04-16T10:58:57.107Z,12.61
2023-04-16T11:01:32.572Z,12.70
2023-04-16T11:04:03.360Z,12.76
2023-04-16T11:06:32.283Z,12.82
2023-04-16T11:09:00.800Z,12.87
2023-04-16T11:11:38.338Z,12.91
2023-04-16T11:14:07.932Z,12.85
2023-04-16T11:16:36.097Z,12.95
2023-04-16T11:19:06.500Z,13.02
2023-04-16T11:21:35.371Z,13.13
2023-04-16T11:24:03.457Z,13.17
2023-04-16T11:26:31.975Z,13.14
2023-04-16T11:29:00.513Z,13.01
2023-04-16T11:31:28.712Z,12.95
2023-04-16T11:34:01.020Z,13.01
2023-04-16T11:36:44.343Z,12.95
2023-04-16T11:39:12.652Z,12.93
2023-04-16T11:41:44.894Z,13.02
2023-04-16T11:44:22.119Z,13.11
2023-04-16T11:46:50.818Z,13.19
2023-04-16T11:49:20.670Z,13.26
2023-04-16T11:51:50.209Z,13.17
2023-04-16T11:54:22.976Z,13.18
2023-04-16T11:56:53.732Z,13.26
2023-04-16T11:59:25.615Z,13.30
2023-04-16T12:01:55.877Z,13.42
2023-04-16T12:04:25.747Z,13.44
2023-04-16T12:07:11.981Z,13.50
2023-04-16T12:09:41.482Z,13.59
2023-04-16T12:12:32.329Z,13.59
2023-04-16T12:15:03.500Z,13.62
2023-04-16T12:17:32.348Z,13.72
2023-04-16T12:20:02.532Z,13.77
2023-04-16T12:22:36.855Z,13.74
2023-04-16T12:25:07.199Z,13.79
2023-04-16T12:27:47.057Z,13.83
2023-04-16T12:30:20.093Z,13.87
2023-04-16T12:32:49.704Z,13.90
2023-04-16T12:35:31.413Z,13.77
2023-04-16T12:38:01.795Z,13.75
2023-04-16T12:40:32.574Z,13.77
2023-04-16T12:43:01.267Z,13.82
2023-04-16T12:45:29.901Z,13.92
2023-04-16T12:47:58.193Z,13.91
2023-04-16T12:50:26.488Z,14.00
2023-04-16T12:52:54.937Z,13.98
2023-04-16T12:55:27.174Z,13.95
2023-04-16T12:57:56.128Z,13.87
2023-04-16T13:00:27.442Z,13.87
2023-04-16T13:02:56.230Z,13.95
2023-04-16T13:05:24.830Z,14.04
2023-04-16T13:07:53.102Z,14.02
2023-04-16T13:10:23.574Z,14.06
2023-04-16T13:12:53.450Z,13.96
2023-04-16T13:15:24.800Z,14.00
2023-04-16T13:17:53.021Z,14.07
2023-04-16T13:20:24.343Z,14.16
2023-04-16T13:22:52.837Z,14.18
2023-04-16T13:25:21.052Z,14.12
2023-04-16T13:27:49.310Z,14.11
2023-04-16T13:30:34.256Z,14.05
2023-04-16T13:33:02.745Z,13.96
2023-04-16T13:35:34.070Z,13.91
2023-04-16T13:38:02.228Z,13.85
2023-04-16T13:40:30.522Z,13.81
2023-04-16T13:43:00.238Z,13.83
2023-04-16T13:45:29.819Z,13.87
2023-04-16T13:48:04.141Z,13.93
2023-04-16T13:50:32.498Z,13.91
2023-04-16T13:53:00.964Z,13.92
2023-04-16T13:55:29.705Z,13.98
2023-04-16T13:57:57.820Z,14.03
2023-04-16T14:00:27.322Z,14.11
2023-04-16T14:02:55.688Z,14.18
2023-04-16T14:05:28.190Z,14.13
2023-04-16T14:07:56.419Z,14.13
2023-04-16T14:10:27.077Z,14.08
2023-04-16T14:12:59.546Z,14.12
2023-04-16T14:15:34.194Z,14.05
2023-04-16T14:18:04.227Z,14.06
2023-04-16T14:20:33.850Z,14.02
2023-04-16T14:23:02.459Z,13.97
2023-04-16T14:25:31.047Z,13.98
2023-04-16T14:28:02.047Z,13.93
2023-04-16T14:30:30.691Z,13.96
2023-04-16T14:32:59.134Z,14.07
2023-04-16T14:35:27.451Z,14.08
2023-04-16T14:37:57.961Z,14.03
2023-04-16T14:40:26.147Z,14.10
2023-04-16T14:42:55.070Z,14.13
2023-04-16T14:45:26.305Z,14.20
2023-04-16T14:47:54.768Z,14.21
2023-04-16T14:50:22.945Z,14.26
2023-04-16T14:52:51.912Z,14.37
2023-04-16T14:55:21.692Z,14.34
2023-04-16T14:57:49.881Z,14.37
2023-04-16T15:00:18.845Z,14.36
2023-04-16T15:02:48.205Z,14.33
2023-04-16T15:05:17.011Z,14.33
2023-04-16T15:07:45.224Z,14.38
2023-04-16T15:10:14.636Z,14.41
2023-04-16T15:12:44.276Z,14.43
2023-04-16T15:15:18.009Z,14.47
2023-04-16T15:17:46.380Z,14.33
2023-04-16T15:20:14.754Z,14.25
2023-04-16T15:22:42.881Z,14.21
2023-04-16T15:25:11.320Z,14.19
2023-04-16T15:27:39.419Z,14.15
2023-04-16T15:30:10.449Z,14.17
2023-04-16T15:32:39.776Z,14.25
2023-04-16T15:35:11.163Z,14.49
2023-04-16T15:37:39.943Z,15.33
2023-04-16T15:40:10.841Z,16.49
2023-04-16T15:42:40.178Z,17.46
2023-04-16T15:45:10.596Z,18.33
2023-04-16T15:47:40.970Z,19.21
2023-04-16T15:50:10.322Z,19.89
2023-04-16T15:52:39.530Z,20.04
2023-04-16T15:55:08.111Z,20.08
2023-04-16T15:57:36.261Z,20.12
2023-04-16T16:00:14.011Z,20.32
2023-04-16T16:02:43.360Z,20.22
2023-04-16T16:05:12.991Z,20.22
2023-04-16T16:07:41.936Z,20.24
2023-04-16T16:10:13.031Z,20.48
2023-04-16T16:12:41.579Z,20.63
2023-04-16T16:15:12.146Z,20.67
2023-04-16T16:17:40.973Z,20.63
2023-04-16T16:20:12.959Z,20.68
2023-04-16T16:22:43.110Z,20.84
2023-04-16T16:25:11.346Z,20.87
2023-04-16T16:27:40.764Z,20.90
2023-04-16T16:30:17.233Z,20.92
2023-04-16T16:32:45.786Z,20.55
2023-04-16T16:35:14.087Z,20.21
2023-04-16T16:37:42.414Z,20.05
2023-04-16T16:40:12.646Z,20.00
2023-04-16T16:42:42.394Z,19.76
2023-04-16T16:45:12.159Z,19.64
2023-04-16T16:47:41.751Z,19.53
2023-04-16T16:50:11.523Z,19.15
2023-04-16T16:52:39.811Z,18.86
2023-04-16T16:55:11.153Z,18.80
2023-04-16T16:57:39.756Z,18.86
2023-04-16T17:00:16.316Z,18.93
2023-04-16T17:02:46.159Z,18.93
2023-04-16T17:05:14.664Z,18.76
2023-04-16T17:07:42.996Z,18.70
2023-04-16T17:10:13.417Z,18.48
2023-04-16T17:12:41.614Z,17.80
2023-04-16T17:15:10.999Z,16.96
2023-04-16T17:17:39.207Z,16.20
2023-04-16T17:20:10.879Z,15.72
2023-04-16T17:22:43.052Z,15.24
2023-04-16T17:25:12.263Z,14.82
2023-04-16T17:27:40.488Z,14.46
2023-04-16T17:30:10.089Z,14.13
2023-04-16T17:32:47.396Z,13.83
2023-04-16T17:35:17.188Z,13.65
2023-04-16T17:37:45.516Z,13.43
2023-04-16T17:40:15.695Z,13.40
2023-04-16T17:42:44.165Z,13.63
2023-04-16T17:45:13.437Z,13.79
2023-04-16T17:47:42.117Z,13.86
2023-04-16T17:50:11.221Z,13.97
2023-04-16T17:52:40.963Z,13.96
2023-04-16T17:55:09.418Z,13.81
2023-04-16T17:57:37.597Z,13.62
2023-04-16T18:00:10.519Z,13.37
2023-04-16T18:02:40.850Z,13.10
2023-04-16T18:05:10.261Z,12.79
2023-04-16T18:07:40.611Z,12.53
2023-04-16T18:10:11.919Z,12.32
2023-04-16T18:12:39.987Z,12.13
2023-04-16T18:15:09.241Z,11.97
2023-04-16T18:17:37.402Z,11.76
2023-04-16T18:20:07.146Z,11.59
2023-04-16T18:22:35.738Z,11.44
2023-04-16T18:25:05.320Z,11.28
2023-04-16T18:27:34.927Z,11.14
2023-04-16T18:30:04.764Z,11.02
2023-04-16T18:32:33.546Z,10.90
2023-04-16T18:35:02.226Z,10.78
2023-04-16T18:37:30.905Z,10.62
2023-04-16T18:40:20.476Z,10.54
2023-04-16T18:42:50.108Z,10.43
2023-04-16T18:45:22.168Z,10.30
2023-04-16T18:47:50.942Z,10.20
2023-04-16T18:50:19.416Z,10.12
2023-04-16T18:52:47.654Z,10.02
2023-04-16T18:55:24.348Z,9.93
2023-04-16T18:57:55.286Z,9.86
2023-04-16T19:00:23.533Z,9.78
2023-04-16T19:02:51.796Z,9.67
2023-04-16T19:05:21.186Z,9.60
2023-04-16T19:07:49.585Z,9.49
2023-04-16T19:10:18.972Z,9.42
2023-04-16T19:12:47.139Z,9.36
2023-04-16T19:15:17.066Z,9.28
2023-04-16T19:17:45.764Z,9.20
2023-04-16T19:20:17.906Z,9.14
2023-04-16T19:22:48.127Z,9.05
2023-04-16T19:25:22.158Z,8.97
2023-04-16T19:27:50.596Z,8.91
2023-04-16T19:30:20.664Z,8.81
2023-04-16T19:32:48.907Z,8.74
2023-04-16T19:35:17.754Z,8.64
2023-04-16T19:37:46.012Z,8.53
2023-04-16T19:40:23.827Z,8.46
2023-04-16T19:42:52.530Z,8.38
2023-04-16T19:45:26.059Z,8.29
2023-04-16T19:47:54.552Z,8.21
2023-04-16T19:50:23.861Z,8.14
2023-04-16T19:52:52.167Z,8.07
2023-04-16T19:55:20.435Z,7.99
2023-04-16T19:57:49.374Z,7.90
2023-04-16T20:00:21.025Z,7.82
2023-04-16T20:02:51.223Z,7.74
2023-04-16T20:05:20.078Z,7.66
2023-04-16T20:07:48.686Z,7.59
2023-04-16T20:10:17.933Z,7.53
2023-04-16T20:12:46.361Z,7.47
2023-04-16T20:15:14.758Z,7.40
2023-04-16T20:17:43.198Z,7.34
2023-04-16T20:20:15.874Z,7.28
2023-04-16T20:22:46.756Z,7.23
2023-04-16T20:25:18.848Z,7.13
2023-04-16T20:27:47.177Z,7.02
2023-04-16T20:30:29.462Z,6.91
2023-04-16T20:32:57.869Z,6.81
2023-04-16T20:35:27.571Z,6.72
2023-04-16T20:37:55.950Z,6.59
2023-04-16T20:40:24.182Z,6.49
2023-04-16T20:42:52.615Z,6.42
2023-04-16T20:45:21.100Z,6.35
2023-04-16T20:47:49.422Z,6.30
2023-04-16T20:50:18.478Z,6.22
2023-04-16T20:52:47.988Z,6.15
2023-04-16T20:55:17.480Z,6.07
2023-04-16T20:57:45.784Z,6.02
2023-04-16T21:00:15.737Z,5.95
2023-04-16T21:02:44.426Z,5.86
2023-04-16T21:05:14.988Z,5.80
2023-04-16T21:07:44.400Z,5.70
2023-04-16T21:10:20.401Z,5.63
2023-04-16T21:12:48.670Z,5.55
2023-04-16T21:15:18.562Z,5.46
2023-04-16T21:17:46.871Z,5.38
2023-04-16T21:20:16.111Z,5.33
2023-04-16T21:22:45.794Z,5.24
2023-04-16T21:25:16.167Z,5.16
2023-04-16T21:27:44.491Z,5.09
2023-04-16T21:30:14.009Z,5.01
2023-04-16T21:32:42.558Z,4.93
2023-04-16T21:35:11.721Z,4.84
2023-04-16T21:37:39.930Z,4.79
2023-04-16T21:40:09.479Z,4.73
2023-04-16T21:42:40.126Z,4.66
2023-04-16T21:45:10.127Z,4.60
2023-04-16T21:47:38.906Z,4.53
2023-04-16T21:50:08.891Z,4.47
2023-04-16T21:52:40.573Z,4.40
2023-04-16T21:55:10.653Z,4.35
2023-04-16T21:57:40.611Z,4.27
2023-04-16T22:00:14.399Z,4.21
2023-04-16T22:02:43.469Z,4.15
2023-04-16T22:05:12.253Z,4.09
2023-04-16T22:07:40.848Z,4.01
2023-04-16T22:10:15.003Z,3.96
2023-04-16T22:12:46.653Z,3.91
2023-04-16T22:15:15.721Z,3.86
2023-04-16T22:17:44.683Z,3.81
2023-04-16T22:20:13.576Z,3.76
2023-04-16T22:22:43.888Z,3.72
2023-04-16T22:25:12.378Z,3.67
2023-04-16T22:27:41.948Z,3.64
2023-04-16T22:30:13.362Z,3.59
2023-04-16T22:32:41.882Z,3.54
2023-04-16T22:35:10.996Z,3.47
2023-04-16T22:37:39.276Z,3.42
2023-04-16T22:40:11.324Z,3.37
2023-04-16T22:42:39.931Z,3.29
2023-04-16T22:45:10.162Z,3.23
2023-04-16T22:47:40.321Z,3.17
2023-04-16T22:50:22.713Z,3.12
2023-04-16T22:52:52.208Z,3.03
2023-04-16T22:55:20.657Z,2.95
2023-04-16T22:57:49.079Z,2.89
2023-04-16T23:00:20.770Z,2.81
2023-04-16T23:02:50.834Z,2.72
2023-04-16T23:05:19.433Z,2.64
2023-04-16T23:07:47.745Z,2.55
2023-04-16T23:10:16.891Z,2.47
2023-04-16T23:12:45.143Z,2.44
2023-04-16T23:15:14.961Z,2.41
2023-04-16T23:17:43.558Z,2.38
2023-04-16T23:20:15.028Z,2.31
2023-04-16T23:22:43.508Z,2.23
2023-04-16T23:25:11.948Z,2.20
2023-04-16T23:27:40.353Z,2.14
2023-04-16T23:30:09.778Z,2.13
2023-04-16T23:32:38.651Z,2.07
2023-04-16T23:35:08.664Z,1.99
2023-04-16T23:37:38.729Z,1.96
2023-04-16T23:40:09.017Z,1.92
2023-04-16T23:42:37.335Z,1.86
2023-04-16T23:45:06.141Z,1.80
2023-04-16T23:47:34.841Z,1.76
2023-04-16T23:50:03.674Z,1.70
2023-04-16T23:52:32.183Z,1.65
2023-04-16T23:55:02.240Z,1.61
2023-04-16T23:57:30.652Z,1.59
2023-04-16T23:59:58.981Z,1.57
